Current | Forecast
Updated: 10:04 AM JST on April 23, 2018
Observed at Kagoshima Airport, Japan
Temperature 68°F
Humidity 73%
Dew Point 59°F
Wind ESE at 8 mph
Pressure 30.06 in (Steady)
Conditions Mostly Cloudy
Visibility 6.2 miles
UV 5 out of 16
Clouds (FEW) : 1000 ft
Mostly Cloudy (BKN) : 2500 ft
Mostly Cloudy (BKN) : 8000 ft
Yesterday's Maximum 77°F
Yesterday's Minimum 55°F approx.
Yesterday's Cooling Degree Days 1 approx.
Sunrise5:37 AM JST
Sunset6:48 PM JST
Moon Rise11:54 AM JST
Moon Set1:06 AM JST
Moon PhaseMoon Phase
First Quarter
Raw METARSPECI RJFK 230104Z 11007KT 9999 VCVA FEW010 BKN025 BKN080 20/15 Q1018 RMK 1CU010 6CU025 7AC080 A3007 ASH FALL VOLCANIC ASH CLOUD S


Monday
. High: 70° F.
Tuesday
. High: 80° F.
Wednesday
. High: 71° F.
Thursday
. High: 73° F.
Friday
. High: 66° F.
Saturday
. High: 77° F.
Sunday
. High: 75° F.
Monday
. High: 75° F.

Units: English | Metric

Find the Weather for any City, State or Zipcode, or Country:

U.S. State List | Severe Weather | Tropical Storms | Ski Conditions
United States | Canada | Central America | South America | Asia | Europe | Australia | Africa | Islands

Weather Underground

© Copyright 2018
The Weather Company, LLC